sensor_id;sensor_type;location;lat;lon;timestamp;P1;durP1;ratioP1;P2;durP2;ratioP2
46365;SDS011;32073;49.166;8.076;2023-04-25T00:02:54;2.65;;;1.70;;
46365;SDS011;32073;49.166;8.076;2023-04-25T00:06:59;2.38;;;1.70;;
46365;SDS011;32073;49.166;8.076;2023-04-25T00:11:03;2.75;;;1.75;;
46365;SDS011;32073;49.166;8.076;2023-04-25T00:15:04;1.95;;;1.40;;
46365;SDS011;32073;49.166;8.076;2023-04-25T00:19:05;1.80;;;1.50;;
46365;SDS011;32073;49.166;8.076;2023-04-25T00:23:07;2.28;;;1.80;;
46365;SDS011;32073;49.166;8.076;2023-04-25T00:27:08;1.63;;;1.42;;
46365;SDS011;32073;49.166;8.076;2023-04-25T00:31:08;2.13;;;1.60;;
46365;SDS011;32073;49.166;8.076;2023-04-25T00:35:09;1.77;;;1.40;;
46365;SDS011;32073;49.166;8.076;2023-04-25T00:39:10;2.10;;;1.70;;
46365;SDS011;32073;49.166;8.076;2023-04-25T00:43:12;1.92;;;1.58;;
46365;SDS011;32073;49.166;8.076;2023-04-25T00:47:13;2.22;;;1.30;;
46365;SDS011;32073;49.166;8.076;2023-04-25T00:51:16;2.55;;;1.60;;
46365;SDS011;32073;49.166;8.076;2023-04-25T00:55:20;2.10;;;1.45;;
46365;SDS011;32073;49.166;8.076;2023-04-25T00:59:21;1.58;;;1.33;;
46365;SDS011;32073;49.166;8.076;2023-04-25T01:03:22;1.77;;;1.35;;
46365;SDS011;32073;49.166;8.076;2023-04-25T01:07:22;1.83;;;1.52;;
46365;SDS011;32073;49.166;8.076;2023-04-25T01:11:23;1.27;;;1.17;;
46365;SDS011;32073;49.166;8.076;2023-04-25T01:15:24;1.77;;;1.58;;
46365;SDS011;32073;49.166;8.076;2023-04-25T01:19:25;2.25;;;1.65;;
46365;SDS011;32073;49.166;8.076;2023-04-25T01:23:25;1.83;;;1.45;;
46365;SDS011;32073;49.166;8.076;2023-04-25T01:27:27;2.67;;;1.58;;
46365;SDS011;32073;49.166;8.076;2023-04-25T01:31:28;3.17;;;1.98;;
46365;SDS011;32073;49.166;8.076;2023-04-25T01:35:28;2.72;;;1.73;;
46365;SDS011;32073;49.166;8.076;2023-04-25T01:39:29;2.55;;;1.80;;
46365;SDS011;32073;49.166;8.076;2023-04-25T01:43:30;1.80;;;1.60;;
46365;SDS011;32073;49.166;8.076;2023-04-25T01:47:31;2.20;;;1.50;;
46365;SDS011;32073;49.166;8.076;2023-04-25T01:51:32;2.95;;;1.50;;
46365;SDS011;32073;49.166;8.076;2023-04-25T01:55:33;1.38;;;1.27;;
46365;SDS011;32073;49.166;8.076;2023-04-25T01:59:33;1.67;;;1.40;;
46365;SDS011;32073;49.166;8.076;2023-04-25T02:03:34;1.83;;;1.45;;
46365;SDS011;32073;49.166;8.076;2023-04-25T02:07:36;2.00;;;1.52;;
46365;SDS011;32073;49.166;8.076;2023-04-25T02:11:37;2.78;;;1.95;;
46365;SDS011;32073;49.166;8.076;2023-04-25T02:15:38;1.75;;;1.60;;
46365;SDS011;32073;49.166;8.076;2023-04-25T02:19:38;3.35;;;1.60;;
46365;SDS011;32073;49.166;8.076;2023-04-25T02:23:39;2.72;;;1.90;;
46365;SDS011;32073;49.166;8.076;2023-04-25T02:27:40;2.72;;;1.90;;
46365;SDS011;32073;49.166;8.076;2023-04-25T02:31:41;2.00;;;1.80;;
46365;SDS011;32073;49.166;8.076;2023-04-25T02:35:42;1.95;;;1.63;;
46365;SDS011;32073;49.166;8.076;2023-04-25T02:39:42;2.00;;;1.52;;
46365;SDS011;32073;49.166;8.076;2023-04-25T02:43:43;1.80;;;1.70;;
46365;SDS011;32073;49.166;8.076;2023-04-25T02:47:44;4.35;;;2.10;;
46365;SDS011;32073;49.166;8.076;2023-04-25T02:51:44;1.90;;;1.58;;
46365;SDS011;32073;49.166;8.076;2023-04-25T02:55:45;1.80;;;1.40;;
46365;SDS011;32073;49.166;8.076;2023-04-25T02:59:46;3.17;;;1.70;;
46365;SDS011;32073;49.166;8.076;2023-04-25T03:03:47;2.35;;;1.95;;
46365;SDS011;32073;49.166;8.076;2023-04-25T03:07:48;3.85;;;2.50;;
46365;SDS011;32073;49.166;8.076;2023-04-25T03:11:48;2.15;;;1.95;;
46365;SDS011;32073;49.166;8.076;2023-04-25T03:15:49;2.85;;;2.13;;
46365;SDS011;32073;49.166;8.076;2023-04-25T03:19:50;3.17;;;2.17;;
46365;SDS011;32073;49.166;8.076;2023-04-25T03:23:50;2.28;;;2.08;;
46365;SDS011;32073;49.166;8.076;2023-04-25T03:27:51;2.80;;;2.40;;
46365;SDS011;32073;49.166;8.076;2023-04-25T03:31:51;3.72;;;2.40;;
46365;SDS011;32073;49.166;8.076;2023-04-25T03:35:52;2.55;;;2.10;;
46365;SDS011;32073;49.166;8.076;2023-04-25T03:39:53;3.33;;;1.95;;
46365;SDS011;32073;49.166;8.076;2023-04-25T03:43:53;4.22;;;2.50;;
46365;SDS011;32073;49.166;8.076;2023-04-25T03:47:54;2.20;;;1.83;;
46365;SDS011;32073;49.166;8.076;2023-04-25T03:51:55;3.90;;;2.38;;
46365;SDS011;32073;49.166;8.076;2023-04-25T03:55:55;3.45;;;2.08;;
46365;SDS011;32073;49.166;8.076;2023-04-25T03:59:56;3.47;;;2.55;;
46365;SDS011;32073;49.166;8.076;2023-04-25T04:03:57;4.93;;;2.60;;
46365;SDS011;32073;49.166;8.076;2023-04-25T04:07:57;2.72;;;2.00;;
46365;SDS011;32073;49.166;8.076;2023-04-25T04:11:58;3.67;;;2.40;;
46365;SDS011;32073;49.166;8.076;2023-04-25T04:15:58;2.90;;;2.38;;
46365;SDS011;32073;49.166;8.076;2023-04-25T04:19:59;2.30;;;1.98;;
46365;SDS011;32073;49.166;8.076;2023-04-25T04:24:00;3.42;;;2.50;;
46365;SDS011;32073;49.166;8.076;2023-04-25T04:28:01;3.45;;;2.60;;
46365;SDS011;32073;49.166;8.076;2023-04-25T04:32:02;4.22;;;2.42;;
46365;SDS011;32073;49.166;8.076;2023-04-25T04:36:03;3.38;;;2.50;;
46365;SDS011;32073;49.166;8.076;2023-04-25T04:40:04;5.50;;;2.60;;
46365;SDS011;32073;49.166;8.076;2023-04-25T04:44:06;3.58;;;2.80;;
46365;SDS011;32073;49.166;8.076;2023-04-25T04:48:08;4.07;;;2.70;;
46365;SDS011;32073;49.166;8.076;2023-04-25T04:52:11;4.28;;;3.28;;
46365;SDS011;32073;49.166;8.076;2023-04-25T04:56:12;5.20;;;3.35;;
46365;SDS011;32073;49.166;8.076;2023-04-25T05:00:13;4.30;;;3.15;;
46365;SDS011;32073;49.166;8.076;2023-04-25T05:04:15;5.15;;;4.13;;
46365;SDS011;32073;49.166;8.076;2023-04-25T05:08:16;4.00;;;3.08;;
46365;SDS011;32073;49.166;8.076;2023-04-25T05:12:16;3.10;;;2.65;;
46365;SDS011;32073;49.166;8.076;2023-04-25T05:16:17;3.30;;;2.70;;
46365;SDS011;32073;49.166;8.076;2023-04-25T05:20:18;3.33;;;2.78;;
46365;SDS011;32073;49.166;8.076;2023-04-25T05:24:18;3.45;;;2.60;;
46365;SDS011;32073;49.166;8.076;2023-04-25T05:28:19;3.22;;;2.33;;
46365;SDS011;32073;49.166;8.076;2023-04-25T05:32:21;5.07;;;3.15;;
46365;SDS011;32073;49.166;8.076;2023-04-25T05:36:21;4.22;;;3.15;;
46365;SDS011;32073;49.166;8.076;2023-04-25T05:40:22;4.50;;;3.42;;
46365;SDS011;32073;49.166;8.076;2023-04-25T05:44:23;4.45;;;2.92;;
46365;SDS011;32073;49.166;8.076;2023-04-25T05:48:23;3.10;;;2.67;;
46365;SDS011;32073;49.166;8.076;2023-04-25T05:52:24;3.40;;;2.65;;
46365;SDS011;32073;49.166;8.076;2023-04-25T05:56:25;3.72;;;3.22;;
46365;SDS011;32073;49.166;8.076;2023-04-25T06:00:25;4.95;;;3.97;;
46365;SDS011;32073;49.166;8.076;2023-04-25T06:04:26;6.47;;;4.03;;
46365;SDS011;32073;49.166;8.076;2023-04-25T06:08:27;4.93;;;3.85;;
46365;SDS011;32073;49.166;8.076;2023-04-25T06:12:27;5.45;;;3.95;;
46365;SDS011;32073;49.166;8.076;2023-04-25T06:16:28;6.22;;;4.53;;
46365;SDS011;32073;49.166;8.076;2023-04-25T06:20:29;5.97;;;4.13;;
46365;SDS011;32073;49.166;8.076;2023-04-25T06:24:29;5.60;;;4.28;;
46365;SDS011;32073;49.166;8.076;2023-04-25T06:28:30;5.80;;;4.57;;
46365;SDS011;32073;49.166;8.076;2023-04-25T06:32:31;5.75;;;4.25;;
46365;SDS011;32073;49.166;8.076;2023-04-25T06:36:32;6.20;;;4.00;;
46365;SDS011;32073;49.166;8.076;2023-04-25T06:40:33;6.28;;;4.18;;
46365;SDS011;32073;49.166;8.076;2023-04-25T06:44:33;9.10;;;4.40;;
46365;SDS011;32073;49.166;8.076;2023-04-25T06:48:34;5.85;;;4.63;;
46365;SDS011;32073;49.166;8.076;2023-04-25T06:52:34;6.60;;;4.63;;
46365;SDS011;32073;49.166;8.076;2023-04-25T06:56:35;7.72;;;4.40;;
46365;SDS011;32073;49.166;8.076;2023-04-25T07:00:36;5.82;;;4.45;;
46365;SDS011;32073;49.166;8.076;2023-04-25T07:04:36;5.53;;;4.30;;
46365;SDS011;32073;49.166;8.076;2023-04-25T07:08:37;5.90;;;4.63;;
46365;SDS011;32073;49.166;8.076;2023-04-25T07:12:38;6.10;;;4.70;;
46365;SDS011;32073;49.166;8.076;2023-04-25T07:16:38;6.18;;;4.60;;
46365;SDS011;32073;49.166;8.076;2023-04-25T07:20:39;5.18;;;3.95;;
46365;SDS011;32073;49.166;8.076;2023-04-25T07:24:40;5.18;;;3.95;;
46365;SDS011;32073;49.166;8.076;2023-04-25T07:28:40;4.75;;;3.90;;
46365;SDS011;32073;49.166;8.076;2023-04-25T07:32:41;5.65;;;4.20;;
46365;SDS011;32073;49.166;8.076;2023-04-25T07:36:42;6.60;;;4.32;;
46365;SDS011;32073;49.166;8.076;2023-04-25T07:40:43;5.85;;;4.25;;
46365;SDS011;32073;49.166;8.076;2023-04-25T07:44:44;5.35;;;4.00;;
46365;SDS011;32073;49.166;8.076;2023-04-25T07:48:44;5.57;;;4.47;;
46365;SDS011;32073;49.166;8.076;2023-04-25T07:52:45;5.35;;;4.00;;
46365;SDS011;32073;49.166;8.076;2023-04-25T07:56:46;6.13;;;4.07;;
46365;SDS011;32073;49.166;8.076;2023-04-25T08:00:46;6.57;;;4.63;;
46365;SDS011;32073;49.166;8.076;2023-04-25T08:04:48;6.72;;;3.90;;
46365;SDS011;32073;49.166;8.076;2023-04-25T08:08:49;5.50;;;4.28;;
46365;SDS011;32073;49.166;8.076;2023-04-25T08:12:50;7.00;;;4.18;;
46365;SDS011;32073;49.166;8.076;2023-04-25T08:16:50;3.85;;;2.92;;
46365;SDS011;32073;49.166;8.076;2023-04-25T08:20:51;4.72;;;3.50;;
46365;SDS011;32073;49.166;8.076;2023-04-25T08:24:52;5.30;;;3.17;;
46365;SDS011;32073;49.166;8.076;2023-04-25T08:28:52;4.28;;;3.47;;
46365;SDS011;32073;49.166;8.076;2023-04-25T08:32:53;4.00;;;2.92;;
46365;SDS011;32073;49.166;8.076;2023-04-25T08:36:54;5.07;;;3.20;;
46365;SDS011;32073;49.166;8.076;2023-04-25T08:40:54;6.18;;;3.88;;
46365;SDS011;32073;49.166;8.076;2023-04-25T08:44:59;5.13;;;3.55;;
46365;SDS011;32073;49.166;8.076;2023-04-25T08:49:02;3.92;;;3.20;;
46365;SDS011;32073;49.166;8.076;2023-04-25T08:53:03;6.10;;;3.85;;
46365;SDS011;32073;49.166;8.076;2023-04-25T08:57:07;7.30;;;3.58;;
46365;SDS011;32073;49.166;8.076;2023-04-25T09:01:08;10.40;;;3.50;;
46365;SDS011;32073;49.166;8.076;2023-04-25T09:05:09;7.53;;;4.07;;
46365;SDS011;32073;49.166;8.076;2023-04-25T09:09:13;5.80;;;3.97;;
46365;SDS011;32073;49.166;8.076;2023-04-25T09:13:14;9.75;;;4.55;;
46365;SDS011;32073;49.166;8.076;2023-04-25T09:17:26;9.98;;;5.43;;
46365;SDS011;32073;49.166;8.076;2023-04-25T09:21:28;7.82;;;4.70;;
46365;SDS011;32073;49.166;8.076;2023-04-25T09:25:34;7.95;;;4.32;;
46365;SDS011;32073;49.166;8.076;2023-04-25T09:29:39;10.93;;;4.83;;
46365;SDS011;32073;49.166;8.076;2023-04-25T09:33:41;10.10;;;5.80;;
46365;SDS011;32073;49.166;8.076;2023-04-25T09:37:42;15.02;;;7.00;;
46365;SDS011;32073;49.166;8.076;2023-04-25T09:41:43;11.15;;;6.22;;
46365;SDS011;32073;49.166;8.076;2023-04-25T09:45:43;12.93;;;7.38;;
46365;SDS011;32073;49.166;8.076;2023-04-25T09:49:45;19.25;;;8.73;;
46365;SDS011;32073;49.166;8.076;2023-04-25T09:53:46;11.95;;;5.32;;
46365;SDS011;32073;49.166;8.076;2023-04-25T09:57:50;14.73;;;5.88;;
46365;SDS011;32073;49.166;8.076;2023-04-25T10:01:57;18.92;;;7.35;;
46365;SDS011;32073;49.166;8.076;2023-04-25T10:05:59;29.00;;;10.65;;
46365;SDS011;32073;49.166;8.076;2023-04-25T10:10:03;12.07;;;5.88;;
46365;SDS011;32073;49.166;8.076;2023-04-25T10:14:04;10.27;;;4.75;;
46365;SDS011;32073;49.166;8.076;2023-04-25T10:18:06;7.97;;;4.20;;
46365;SDS011;32073;49.166;8.076;2023-04-25T10:22:14;7.50;;;4.28;;
46365;SDS011;32073;49.166;8.076;2023-04-25T10:26:23;8.98;;;4.30;;
46365;SDS011;32073;49.166;8.076;2023-04-25T10:30:24;11.65;;;4.05;;
46365;SDS011;32073;49.166;8.076;2023-04-25T10:34:46;4.65;;;2.28;;
46365;SDS011;32073;49.166;8.076;2023-04-25T10:38:48;4.50;;;2.80;;
46365;SDS011;32073;49.166;8.076;2023-04-25T10:42:54;4.20;;;2.10;;
46365;SDS011;32073;49.166;8.076;2023-04-25T10:46:56;3.10;;;2.40;;
46365;SDS011;32073;49.166;8.076;2023-04-25T10:51:11;3.83;;;2.50;;
46365;SDS011;32073;49.166;8.076;2023-04-25T10:55:23;3.20;;;2.00;;
46365;SDS011;32073;49.166;8.076;2023-04-25T10:59:24;4.10;;;2.67;;
46365;SDS011;32073;49.166;8.076;2023-04-25T11:03:25;4.45;;;2.67;;
46365;SDS011;32073;49.166;8.076;2023-04-25T11:07:33;3.88;;;2.42;;
46365;SDS011;32073;49.166;8.076;2023-04-25T11:11:48;4.85;;;2.53;;
46365;SDS011;32073;49.166;8.076;2023-04-25T11:15:55;6.22;;;3.85;;
46365;SDS011;32073;49.166;8.076;2023-04-25T11:19:55;5.45;;;3.70;;
46365;SDS011;32073;49.166;8.076;2023-04-25T11:23:57;4.57;;;3.22;;
46365;SDS011;32073;49.166;8.076;2023-04-25T11:27:58;4.57;;;2.53;;
46365;SDS011;32073;49.166;8.076;2023-04-25T11:32:01;5.28;;;2.78;;
46365;SDS011;32073;49.166;8.076;2023-04-25T11:36:02;13.15;;;6.53;;
46365;SDS011;32073;49.166;8.076;2023-04-25T11:40:03;5.05;;;3.17;;
46365;SDS011;32073;49.166;8.076;2023-04-25T11:44:06;5.88;;;3.38;;
46365;SDS011;32073;49.166;8.076;2023-04-25T11:48:07;13.18;;;8.13;;
46365;SDS011;32073;49.166;8.076;2023-04-25T11:52:07;5.25;;;3.40;;
46365;SDS011;32073;49.166;8.076;2023-04-25T11:56:11;4.22;;;2.75;;
46365;SDS011;32073;49.166;8.076;2023-04-25T12:00:13;5.25;;;2.70;;
46365;SDS011;32073;49.166;8.076;2023-04-25T12:04:22;5.03;;;2.60;;
46365;SDS011;32073;49.166;8.076;2023-04-25T12:08:24;4.22;;;2.45;;
46365;SDS011;32073;49.166;8.076;2023-04-25T12:12:31;3.55;;;2.25;;
46365;SDS011;32073;49.166;8.076;2023-04-25T12:16:46;4.30;;;2.60;;
46365;SDS011;32073;49.166;8.076;2023-04-25T12:20:48;2.97;;;2.08;;
46365;SDS011;32073;49.166;8.076;2023-04-25T12:24:49;4.35;;;2.90;;
46365;SDS011;32073;49.166;8.076;2023-04-25T12:28:50;4.70;;;2.88;;
46365;SDS011;32073;49.166;8.076;2023-04-25T12:32:50;3.88;;;2.67;;
46365;SDS011;32073;49.166;8.076;2023-04-25T12:36:51;4.35;;;2.67;;
46365;SDS011;32073;49.166;8.076;2023-04-25T12:40:53;4.35;;;2.92;;
46365;SDS011;32073;49.166;8.076;2023-04-25T12:44:55;3.55;;;2.17;;
46365;SDS011;32073;49.166;8.076;2023-04-25T12:48:55;3.67;;;2.30;;
46365;SDS011;32073;49.166;8.076;2023-04-25T12:52:57;3.92;;;2.15;;
46365;SDS011;32073;49.166;8.076;2023-04-25T12:56:57;4.47;;;2.40;;
46365;SDS011;32073;49.166;8.076;2023-04-25T13:00:59;3.97;;;2.30;;
46365;SDS011;32073;49.166;8.076;2023-04-25T13:04:59;4.45;;;2.45;;
46365;SDS011;32073;49.166;8.076;2023-04-25T13:09:00;3.45;;;2.03;;
46365;SDS011;32073;49.166;8.076;2023-04-25T13:13:01;3.55;;;2.10;;
46365;SDS011;32073;49.166;8.076;2023-04-25T13:17:02;5.00;;;2.38;;
46365;SDS011;32073;49.166;8.076;2023-04-25T13:21:03;3.92;;;2.47;;
46365;SDS011;32073;49.166;8.076;2023-04-25T13:25:04;7.22;;;2.65;;
46365;SDS011;32073;49.166;8.076;2023-04-25T13:29:06;5.57;;;2.60;;
46365;SDS011;32073;49.166;8.076;2023-04-25T13:33:07;4.95;;;2.97;;
46365;SDS011;32073;49.166;8.076;2023-04-25T13:37:07;2.78;;;2.25;;
46365;SDS011;32073;49.166;8.076;2023-04-25T13:41:08;2.88;;;2.38;;
46365;SDS011;32073;49.166;8.076;2023-04-25T13:45:11;4.00;;;2.38;;
46365;SDS011;32073;49.166;8.076;2023-04-25T13:49:11;2.90;;;2.17;;
46365;SDS011;32073;49.166;8.076;2023-04-25T13:53:12;2.47;;;2.10;;
46365;SDS011;32073;49.166;8.076;2023-04-25T13:57:13;2.90;;;1.98;;
46365;SDS011;32073;49.166;8.076;2023-04-25T14:01:13;3.35;;;1.95;;
46365;SDS011;32073;49.166;8.076;2023-04-25T14:05:14;3.38;;;2.28;;
46365;SDS011;32073;49.166;8.076;2023-04-25T14:09:15;2.50;;;2.03;;
46365;SDS011;32073;49.166;8.076;2023-04-25T14:13:16;2.72;;;2.25;;
46365;SDS011;32073;49.166;8.076;2023-04-25T14:17:16;2.60;;;1.85;;
46365;SDS011;32073;49.166;8.076;2023-04-25T14:21:17;4.75;;;2.65;;
46365;SDS011;32073;49.166;8.076;2023-04-25T14:25:18;2.70;;;1.80;;
46365;SDS011;32073;49.166;8.076;2023-04-25T14:29:18;3.25;;;1.90;;
46365;SDS011;32073;49.166;8.076;2023-04-25T14:33:19;2.85;;;2.05;;
46365;SDS011;32073;49.166;8.076;2023-04-25T14:37:20;3.80;;;2.00;;
46365;SDS011;32073;49.166;8.076;2023-04-25T14:41:20;3.25;;;2.00;;
46365;SDS011;32073;49.166;8.076;2023-04-25T14:45:21;3.75;;;2.15;;
46365;SDS011;32073;49.166;8.076;2023-04-25T14:49:22;4.18;;;2.33;;
46365;SDS011;32073;49.166;8.076;2023-04-25T14:53:23;4.45;;;2.15;;
46365;SDS011;32073;49.166;8.076;2023-04-25T14:57:23;3.35;;;2.13;;
46365;SDS011;32073;49.166;8.076;2023-04-25T15:01:24;5.57;;;2.58;;
46365;SDS011;32073;49.166;8.076;2023-04-25T15:05:25;2.85;;;2.50;;
46365;SDS011;32073;49.166;8.076;2023-04-25T15:09:26;2.45;;;2.10;;
46365;SDS011;32073;49.166;8.076;2023-04-25T15:13:27;2.42;;;1.90;;
46365;SDS011;32073;49.166;8.076;2023-04-25T15:17:27;2.38;;;1.67;;
46365;SDS011;32073;49.166;8.076;2023-04-25T15:21:31;2.17;;;1.45;;
46365;SDS011;32073;49.166;8.076;2023-04-25T15:25:31;2.30;;;1.35;;
46365;SDS011;32073;49.166;8.076;2023-04-25T15:29:32;1.38;;;1.10;;
46365;SDS011;32073;49.166;8.076;2023-04-25T15:33:33;2.90;;;1.95;;
46365;SDS011;32073;49.166;8.076;2023-04-25T15:37:34;5.07;;;3.50;;
46365;SDS011;32073;49.166;8.076;2023-04-25T15:41:35;2.78;;;2.35;;
46365;SDS011;32073;49.166;8.076;2023-04-25T15:45:36;4.25;;;3.28;;
46365;SDS011;32073;49.166;8.076;2023-04-25T15:49:37;3.47;;;2.05;;
46365;SDS011;32073;49.166;8.076;2023-04-25T15:53:37;5.47;;;2.72;;
46365;SDS011;32073;49.166;8.076;2023-04-25T15:57:38;3.22;;;1.90;;
46365;SDS011;32073;49.166;8.076;2023-04-25T16:01:40;1.30;;;1.20;;
46365;SDS011;32073;49.166;8.076;2023-04-25T16:05:41;2.35;;;1.50;;
46365;SDS011;32073;49.166;8.076;2023-04-25T16:09:42;2.60;;;1.55;;
46365;SDS011;32073;49.166;8.076;2023-04-25T16:13:44;3.25;;;1.48;;
46365;SDS011;32073;49.166;8.076;2023-04-25T16:17:44;2.15;;;1.30;;
46365;SDS011;32073;49.166;8.076;2023-04-25T16:21:45;3.42;;;2.17;;
46365;SDS011;32073;49.166;8.076;2023-04-25T16:25:46;2.90;;;2.13;;
46365;SDS011;32073;49.166;8.076;2023-04-25T16:29:46;2.50;;;1.67;;
46365;SDS011;32073;49.166;8.076;2023-04-25T16:33:50;2.28;;;1.52;;
46365;SDS011;32073;49.166;8.076;2023-04-25T16:37:50;4.00;;;2.38;;
46365;SDS011;32073;49.166;8.076;2023-04-25T16:41:51;2.83;;;1.70;;
46365;SDS011;32073;49.166;8.076;2023-04-25T16:45:52;1.88;;;1.63;;
46365;SDS011;32073;49.166;8.076;2023-04-25T16:49:53;3.28;;;1.70;;
46365;SDS011;32073;49.166;8.076;2023-04-25T16:53:53;2.10;;;1.73;;
46365;SDS011;32073;49.166;8.076;2023-04-25T16:57:55;3.08;;;1.90;;
46365;SDS011;32073;49.166;8.076;2023-04-25T17:01:56;3.72;;;1.88;;
46365;SDS011;32073;49.166;8.076;2023-04-25T17:05:57;3.95;;;2.53;;
46365;SDS011;32073;49.166;8.076;2023-04-25T17:10:00;3.20;;;2.47;;
46365;SDS011;32073;49.166;8.076;2023-04-25T17:14:01;7.10;;;4.30;;
46365;SDS011;32073;49.166;8.076;2023-04-25T17:18:01;4.82;;;3.67;;
46365;SDS011;32073;49.166;8.076;2023-04-25T17:22:02;4.60;;;3.78;;
46365;SDS011;32073;49.166;8.076;2023-04-25T17:26:03;5.25;;;3.33;;
46365;SDS011;32073;49.166;8.076;2023-04-25T17:30:04;3.42;;;2.78;;
46365;SDS011;32073;49.166;8.076;2023-04-25T17:34:06;4.25;;;2.95;;
46365;SDS011;32073;49.166;8.076;2023-04-25T17:38:08;3.05;;;2.45;;
46365;SDS011;32073;49.166;8.076;2023-04-25T17:42:09;2.92;;;2.40;;
46365;SDS011;32073;49.166;8.076;2023-04-25T17:46:10;2.65;;;2.10;;
46365;SDS011;32073;49.166;8.076;2023-04-25T17:50:11;2.67;;;2.03;;
46365;SDS011;32073;49.166;8.076;2023-04-25T17:54:12;2.58;;;1.88;;
46365;SDS011;32073;49.166;8.076;2023-04-25T17:58:13;4.32;;;3.00;;
46365;SDS011;32073;49.166;8.076;2023-04-25T18:02:14;3.80;;;2.88;;
46365;SDS011;32073;49.166;8.076;2023-04-25T18:06:15;3.03;;;2.60;;
46365;SDS011;32073;49.166;8.076;2023-04-25T18:10:16;2.42;;;2.22;;
46365;SDS011;32073;49.166;8.076;2023-04-25T18:14:17;5.80;;;2.70;;
46365;SDS011;32073;49.166;8.076;2023-04-25T18:18:19;2.50;;;2.00;;
46365;SDS011;32073;49.166;8.076;2023-04-25T18:22:24;2.47;;;2.10;;
46365;SDS011;32073;49.166;8.076;2023-04-25T18:26:25;10.60;;;6.45;;
46365;SDS011;32073;49.166;8.076;2023-04-25T18:30:25;4.85;;;3.33;;
46365;SDS011;32073;49.166;8.076;2023-04-25T18:34:26;8.48;;;4.22;;
46365;SDS011;32073;49.166;8.076;2023-04-25T18:38:26;4.57;;;2.85;;
46365;SDS011;32073;49.166;8.076;2023-04-25T18:42:27;3.97;;;2.20;;
46365;SDS011;32073;49.166;8.076;2023-04-25T18:46:28;3.47;;;2.35;;
46365;SDS011;32073;49.166;8.076;2023-04-25T18:50:33;2.80;;;1.98;;
46365;SDS011;32073;49.166;8.076;2023-04-25T18:54:34;2.08;;;1.77;;
46365;SDS011;32073;49.166;8.076;2023-04-25T18:58:35;2.58;;;2.00;;
46365;SDS011;32073;49.166;8.076;2023-04-25T19:02:36;2.85;;;2.30;;
46365;SDS011;32073;49.166;8.076;2023-04-25T19:06:37;4.47;;;3.20;;
46365;SDS011;32073;49.166;8.076;2023-04-25T19:10:38;2.63;;;2.25;;
46365;SDS011;32073;49.166;8.076;2023-04-25T19:14:38;2.75;;;2.22;;
46365;SDS011;32073;49.166;8.076;2023-04-25T19:18:39;2.78;;;2.22;;
46365;SDS011;32073;49.166;8.076;2023-04-25T19:22:40;2.15;;;1.88;;
46365;SDS011;32073;49.166;8.076;2023-04-25T19:26:40;2.33;;;2.13;;
46365;SDS011;32073;49.166;8.076;2023-04-25T19:30:41;2.83;;;2.10;;
46365;SDS011;32073;49.166;8.076;2023-04-25T19:34:42;2.47;;;2.00;;
46365;SDS011;32073;49.166;8.076;2023-04-25T19:38:43;3.67;;;2.28;;
46365;SDS011;32073;49.166;8.076;2023-04-25T19:42:44;3.30;;;2.38;;
46365;SDS011;32073;49.166;8.076;2023-04-25T19:46:48;2.45;;;2.00;;
46365;SDS011;32073;49.166;8.076;2023-04-25T19:50:49;2.42;;;1.58;;
46365;SDS011;32073;49.166;8.076;2023-04-25T19:54:50;2.20;;;1.85;;
46365;SDS011;32073;49.166;8.076;2023-04-25T19:58:51;2.63;;;1.92;;
46365;SDS011;32073;49.166;8.076;2023-04-25T20:02:52;3.72;;;2.30;;
46365;SDS011;32073;49.166;8.076;2023-04-25T20:06:53;4.38;;;2.50;;
46365;SDS011;32073;49.166;8.076;2023-04-25T20:10:53;4.57;;;3.28;;
46365;SDS011;32073;49.166;8.076;2023-04-25T20:14:54;5.07;;;2.80;;
46365;SDS011;32073;49.166;8.076;2023-04-25T20:18:55;4.80;;;2.83;;
46365;SDS011;32073;49.166;8.076;2023-04-25T20:22:56;2.83;;;2.42;;
46365;SDS011;32073;49.166;8.076;2023-04-25T20:26:57;2.95;;;2.42;;
46365;SDS011;32073;49.166;8.076;2023-04-25T20:30:58;3.78;;;2.65;;
46365;SDS011;32073;49.166;8.076;2023-04-25T20:34:59;2.50;;;2.10;;
46365;SDS011;32073;49.166;8.076;2023-04-25T20:39:02;3.47;;;2.58;;
46365;SDS011;32073;49.166;8.076;2023-04-25T20:43:03;3.65;;;2.33;;
46365;SDS011;32073;49.166;8.076;2023-04-25T20:47:04;4.50;;;2.58;;
46365;SDS011;32073;49.166;8.076;2023-04-25T20:51:05;3.72;;;2.92;;
46365;SDS011;32073;49.166;8.076;2023-04-25T20:55:06;4.40;;;3.13;;
46365;SDS011;32073;49.166;8.076;2023-04-25T20:59:07;4.75;;;3.22;;
46365;SDS011;32073;49.166;8.076;2023-04-25T21:03:08;6.35;;;3.65;;
46365;SDS011;32073;49.166;8.076;2023-04-25T21:07:09;4.35;;;3.17;;
46365;SDS011;32073;49.166;8.076;2023-04-25T21:11:11;5.45;;;3.28;;
46365;SDS011;32073;49.166;8.076;2023-04-25T21:15:13;5.82;;;3.45;;
46365;SDS011;32073;49.166;8.076;2023-04-25T21:19:17;6.93;;;3.53;;
46365;SDS011;32073;49.166;8.076;2023-04-25T21:23:17;6.60;;;3.80;;
46365;SDS011;32073;49.166;8.076;2023-04-25T21:27:18;7.97;;;4.38;;
46365;SDS011;32073;49.166;8.076;2023-04-25T21:31:19;7.22;;;4.53;;
46365;SDS011;32073;49.166;8.076;2023-04-25T21:35:20;14.23;;;7.43;;
46365;SDS011;32073;49.166;8.076;2023-04-25T21:39:21;11.85;;;6.90;;
46365;SDS011;32073;49.166;8.076;2023-04-25T21:43:24;7.15;;;4.32;;
46365;SDS011;32073;49.166;8.076;2023-04-25T21:47:24;10.98;;;4.65;;
46365;SDS011;32073;49.166;8.076;2023-04-25T21:51:25;8.05;;;3.63;;
46365;SDS011;32073;49.166;8.076;2023-04-25T21:55:26;8.07;;;3.58;;
46365;SDS011;32073;49.166;8.076;2023-04-25T21:59:26;14.77;;;7.22;;
46365;SDS011;32073;49.166;8.076;2023-04-25T22:03:27;9.00;;;4.38;;
46365;SDS011;32073;49.166;8.076;2023-04-25T22:07:28;20.15;;;10.70;;
46365;SDS011;32073;49.166;8.076;2023-04-25T22:11:29;17.55;;;9.60;;
46365;SDS011;32073;49.166;8.076;2023-04-25T22:15:29;29.98;;;14.98;;
46365;SDS011;32073;49.166;8.076;2023-04-25T22:19:30;34.45;;;17.83;;
46365;SDS011;32073;49.166;8.076;2023-04-25T22:23:31;31.05;;;14.00;;
46365;SDS011;32073;49.166;8.076;2023-04-25T22:27:31;18.95;;;9.70;;
46365;SDS011;32073;49.166;8.076;2023-04-25T22:31:33;15.05;;;6.88;;
46365;SDS011;32073;49.166;8.076;2023-04-25T22:35:34;8.45;;;4.70;;
46365;SDS011;32073;49.166;8.076;2023-04-25T22:39:35;10.43;;;5.25;;
46365;SDS011;32073;49.166;8.076;2023-04-25T22:43:37;5.60;;;3.10;;
46365;SDS011;32073;49.166;8.076;2023-04-25T22:47:40;10.57;;;6.20;;
46365;SDS011;32073;49.166;8.076;2023-04-25T22:51:40;7.40;;;3.42;;
46365;SDS011;32073;49.166;8.076;2023-04-25T22:55:41;11.95;;;4.75;;
46365;SDS011;32073;49.166;8.076;2023-04-25T22:59:43;11.77;;;7.10;;
46365;SDS011;32073;49.166;8.076;2023-04-25T23:03:44;5.78;;;2.53;;
46365;SDS011;32073;49.166;8.076;2023-04-25T23:07:45;6.30;;;2.40;;
46365;SDS011;32073;49.166;8.076;2023-04-25T23:11:46;8.65;;;5.10;;
46365;SDS011;32073;49.166;8.076;2023-04-25T23:15:47;10.80;;;5.13;;
46365;SDS011;32073;49.166;8.076;2023-04-25T23:19:47;5.88;;;3.25;;
46365;SDS011;32073;49.166;8.076;2023-04-25T23:23:48;3.75;;;1.95;;
46365;SDS011;32073;49.166;8.076;2023-04-25T23:27:50;3.08;;;1.85;;
46365;SDS011;32073;49.166;8.076;2023-04-25T23:31:50;6.80;;;2.33;;
46365;SDS011;32073;49.166;8.076;2023-04-25T23:35:51;3.90;;;2.00;;
46365;SDS011;32073;49.166;8.076;2023-04-25T23:39:51;6.95;;;3.42;;
46365;SDS011;32073;49.166;8.076;2023-04-25T23:43:52;11.48;;;6.38;;
46365;SDS011;32073;49.166;8.076;2023-04-25T23:47:53;5.95;;;3.30;;
46365;SDS011;32073;49.166;8.076;2023-04-25T23:51:53;5.70;;;1.80;;
46365;SDS011;32073;49.166;8.076;2023-04-25T23:55:54;4.88;;;2.15;;
46365;SDS011;32073;49.166;8.076;2023-04-25T23:59:55;4.85;;;1.90;;
